createdAt,value
2022-09-11T00:01:55.082Z,1.50
2022-09-11T00:04:23.467Z,2.00
2022-09-11T00:06:50.857Z,1.90
2022-09-11T00:09:17.997Z,1.95
2022-09-11T00:11:45.310Z,1.88
2022-09-11T00:14:14.320Z,1.58
2022-09-11T00:16:45.349Z,1.73
2022-09-11T00:19:15.910Z,2.03
2022-09-11T00:21:43.343Z,1.27
2022-09-11T00:24:10.765Z,2.22
2022-09-11T00:26:39.307Z,1.95
2022-09-11T00:29:06.459Z,1.58
2022-09-11T00:31:33.614Z,1.65
2022-09-11T00:34:01.017Z,1.90
2022-09-11T00:36:31.892Z,1.95
2022-09-11T00:39:00.164Z,1.85
2022-09-11T00:41:30.538Z,1.27
2022-09-11T00:44:03.399Z,1.58
2022-09-11T00:46:43.796Z,1.80
2022-09-11T00:49:22.879Z,1.73
2022-09-11T00:52:08.905Z,2.13
2022-09-11T00:54:41.982Z,1.70
2022-09-11T00:57:10.823Z,2.03
2022-09-11T00:59:42.203Z,2.28
2022-09-11T01:02:13.906Z,1.58
2022-09-11T01:04:41.254Z,1.90
2022-09-11T01:07:09.058Z,1.65
2022-09-11T01:12:10.504Z,1.90
2022-09-11T01:14:49.824Z,2.03
2022-09-11T01:17:19.722Z,2.05
2022-09-11T01:19:55.858Z,1.85
2022-09-11T01:23:02.953Z,1.80
2022-09-11T01:28:37.429Z,2.33
2022-09-11T01:31:12.789Z,2.03
2022-09-11T01:33:48.072Z,2.08
2022-09-11T01:36:34.755Z,2.20
2022-09-11T01:39:04.525Z,1.80
2022-09-11T01:41:40.915Z,2.33
2022-09-11T01:44:23.290Z,1.70
2022-09-11T01:46:53.614Z,1.63
2022-09-11T01:49:29.378Z,2.08
2022-09-11T01:52:03.258Z,2.20
2022-09-11T01:54:35.526Z,2.15
2022-09-11T01:57:10.063Z,1.88
2022-09-11T01:59:48.335Z,2.22
2022-09-11T02:02:22.626Z,3.08
2022-09-11T02:05:01.578Z,2.53
2022-09-11T02:07:40.052Z,2.30
2022-09-11T02:10:18.998Z,2.60
2022-09-11T02:12:53.728Z,2.30
2022-09-11T02:15:25.453Z,2.45
2022-09-11T02:18:02.781Z,2.78
2022-09-11T02:20:31.618Z,2.33
2022-09-11T02:22:59.457Z,2.03
2022-09-11T02:27:54.978Z,2.30
2022-09-11T02:30:22.070Z,2.30
2022-09-11T02:32:49.877Z,2.78
2022-09-11T02:38:18.248Z,2.55
2022-09-11T02:41:03.367Z,2.95
2022-09-11T02:43:51.540Z,2.78
2022-09-11T02:46:52.817Z,2.30
2022-09-11T02:49:28.531Z,2.40
2022-09-11T02:52:43.446Z,2.80
2022-09-11T02:55:49.584Z,2.67
2022-09-11T02:58:51.468Z,2.90
2022-09-11T03:01:18.710Z,2.50
2022-09-11T03:03:46.571Z,2.22
2022-09-11T03:06:32.000Z,2.40
2022-09-11T03:08:59.128Z,2.40
2022-09-11T03:11:26.192Z,2.00
2022-09-11T03:13:53.165Z,2.20
2022-09-11T03:16:20.804Z,2.63
2022-09-11T03:21:14.858Z,2.15
2022-09-11T03:23:41.985Z,3.17
2022-09-11T03:26:09.032Z,2.65
2022-09-11T03:28:36.267Z,2.63
2022-09-11T03:31:04.704Z,2.83
2022-09-11T03:33:31.645Z,2.40
2022-09-11T03:36:00.562Z,2.67
2022-09-11T03:38:27.713Z,2.05
2022-09-11T03:40:55.342Z,2.90
2022-09-11T03:43:22.417Z,2.33
2022-09-11T03:45:50.410Z,2.20
2022-09-11T03:48:18.290Z,2.50
2022-09-11T03:50:46.532Z,2.85
2022-09-11T03:53:14.700Z,2.90
2022-09-11T03:55:41.960Z,2.67
2022-09-11T03:58:09.934Z,2.67
2022-09-11T04:00:36.955Z,3.65
2022-09-11T04:03:03.880Z,4.05
2022-09-11T04:05:31.062Z,3.60
2022-09-11T04:07:58.319Z,2.83
2022-09-11T04:10:26.220Z,2.80
2022-09-11T04:12:53.198Z,3.13
2022-09-11T04:15:20.327Z,2.80
2022-09-11T04:17:47.281Z,2.53
2022-09-11T04:20:14.169Z,2.33
2022-09-11T04:22:41.859Z,2.87
2022-09-11T04:27:36.230Z,1.67
2022-09-11T04:30:03.147Z,2.03
2022-09-11T04:32:30.165Z,2.50
2022-09-11T04:34:57.161Z,2.63
2022-09-11T04:37:24.231Z,2.70
2022-09-11T04:39:51.202Z,2.65
2022-09-11T04:42:18.363Z,2.85
2022-09-11T04:44:46.972Z,2.33
2022-09-11T04:47:14.155Z,2.80
2022-09-11T04:49:41.113Z,2.85
2022-09-11T04:52:08.108Z,2.47
2022-09-11T04:54:35.033Z,2.38
2022-09-11T04:57:02.259Z,2.70
2022-09-11T04:59:29.359Z,2.78
2022-09-11T05:01:56.464Z,2.67
2022-09-11T05:04:26.191Z,2.35
2022-09-11T05:06:53.818Z,2.40
2022-09-11T05:09:20.760Z,3.58
2022-09-11T05:11:48.325Z,3.33
2022-09-11T05:14:15.624Z,3.28
2022-09-11T05:16:43.938Z,3.05
2022-09-11T05:19:11.152Z,2.97
2022-09-11T05:21:38.544Z,4.13
2022-09-11T05:24:05.777Z,3.20
2022-09-11T05:26:35.695Z,2.97
2022-09-11T05:29:13.819Z,3.05
2022-09-11T05:31:41.577Z,3.42
2022-09-11T05:39:04.255Z,3.15
2022-09-11T05:41:31.547Z,2.72
2022-09-11T05:43:59.389Z,2.78
2022-09-11T05:46:26.303Z,2.28
2022-09-11T05:48:53.832Z,3.47
2022-09-11T05:51:21.981Z,2.42
2022-09-11T05:53:53.259Z,2.30
2022-09-11T05:56:25.243Z,2.10
2022-09-11T05:58:52.810Z,2.95
2022-09-11T06:01:22.644Z,2.55
2022-09-11T06:03:50.908Z,1.67
2022-09-11T06:06:22.467Z,2.47
2022-09-11T06:08:51.977Z,1.80
2022-09-11T06:11:21.120Z,2.33
2022-09-11T06:13:49.564Z,2.20
2022-09-11T06:16:19.289Z,2.25
2022-09-11T06:18:50.627Z,1.90
2022-09-11T06:21:20.606Z,1.80
2022-09-11T06:23:52.235Z,2.25
2022-09-11T06:26:22.109Z,2.35
2022-09-11T06:28:49.372Z,2.22
2022-09-11T06:31:19.512Z,1.95
2022-09-11T06:33:47.676Z,2.20
2022-09-11T06:36:17.713Z,1.98
2022-09-11T06:38:45.668Z,1.50
2022-09-11T06:41:15.730Z,1.40
2022-09-11T06:43:43.763Z,1.90
2022-09-11T06:46:15.841Z,2.17
2022-09-11T06:48:44.667Z,1.80
2022-09-11T06:51:14.505Z,1.40
2022-09-11T06:53:42.524Z,1.42
2022-09-11T06:56:16.404Z,1.50
2022-09-11T06:58:44.149Z,1.27
2022-09-11T07:01:16.973Z,0.85
2022-09-11T07:03:48.314Z,1.10
2022-09-11T07:06:17.692Z,1.23
2022-09-11T07:08:44.828Z,1.25
2022-09-11T07:11:13.198Z,0.95
2022-09-11T07:13:42.204Z,1.02
2022-09-11T07:16:10.933Z,1.33
2022-09-11T07:18:43.802Z,1.10
2022-09-11T07:21:16.916Z,0.80
2022-09-11T07:23:48.593Z,1.17
2022-09-11T07:26:16.914Z,0.90
2022-09-11T07:28:43.945Z,0.80
2022-09-11T07:31:14.439Z,0.70
2022-09-11T07:33:46.616Z,0.60
2022-09-11T07:36:18.923Z,0.68
2022-09-11T07:38:47.719Z,0.60
2022-09-11T07:41:17.011Z,1.10
2022-09-11T07:43:47.435Z,0.50
2022-09-11T07:46:15.394Z,0.90
2022-09-11T07:48:43.265Z,0.90
2022-09-11T07:51:16.191Z,0.40
2022-09-11T07:53:46.529Z,0.90
2022-09-11T07:56:18.647Z,0.85
2022-09-11T07:58:46.072Z,0.95
2022-09-11T08:03:45.014Z,0.77
2022-09-11T08:06:21.886Z,0.50
2022-09-11T08:08:54.637Z,0.50
2022-09-11T08:11:22.432Z,1.13
2022-09-11T08:13:52.547Z,0.60
2022-09-11T08:16:21.253Z,0.45
2022-09-11T08:18:48.667Z,0.52
2022-09-11T08:23:44.678Z,0.50
2022-09-11T08:26:22.107Z,0.77
2022-09-11T08:28:50.822Z,0.40
2022-09-11T08:31:20.212Z,0.80
2022-09-11T08:33:49.530Z,0.70
2022-09-11T08:36:19.467Z,0.55
2022-09-11T08:38:47.391Z,0.50
2022-09-11T08:41:35.239Z,0.60
2022-09-11T08:44:05.618Z,0.50
2022-09-11T08:47:02.550Z,0.57
2022-09-11T08:52:03.508Z,0.50
2022-09-11T08:54:33.787Z,0.70
2022-09-11T08:57:27.313Z,0.65
2022-09-11T09:00:18.518Z,0.40
2022-09-11T09:03:04.419Z,0.60
2022-09-11T09:06:00.847Z,0.50
2022-09-11T09:08:31.098Z,0.50
2022-09-11T09:11:29.676Z,0.77
2022-09-11T09:13:56.675Z,0.95
2022-09-11T09:16:42.648Z,0.80
2022-09-11T09:19:26.908Z,0.60
2022-09-11T09:22:18.591Z,0.60
2022-09-11T09:24:54.597Z,0.55
2022-09-11T09:27:35.809Z,0.40
2022-09-11T09:30:07.415Z,0.68
2022-09-11T09:32:45.997Z,0.90
2022-09-11T09:35:28.918Z,0.70
2022-09-11T09:37:55.939Z,0.68
2022-09-11T09:40:25.900Z,0.47
2022-09-11T09:43:37.735Z,0.80
2022-09-11T09:46:32.700Z,0.38
2022-09-11T09:49:01.663Z,0.70
2022-09-11T09:51:29.541Z,0.40
2022-09-11T09:54:01.886Z,0.65
2022-09-11T09:56:32.014Z,0.57
2022-09-11T09:59:15.503Z,0.85
2022-09-11T10:01:54.372Z,0.63
2022-09-11T10:04:23.947Z,0.68
2022-09-11T10:06:54.531Z,0.60
2022-09-11T10:09:28.291Z,0.63
2022-09-11T10:12:09.192Z,0.40
2022-09-11T10:14:52.190Z,0.60
2022-09-11T10:17:31.555Z,0.60
2022-09-11T10:20:33.231Z,0.90
2022-09-11T10:23:24.869Z,0.80
2022-09-11T10:25:52.782Z,0.82
2022-09-11T10:28:31.304Z,1.00
2022-09-11T10:31:02.648Z,0.85
2022-09-11T10:33:33.807Z,1.02
2022-09-11T10:36:04.687Z,0.77
2022-09-11T10:38:46.273Z,0.82
2022-09-11T10:41:13.572Z,0.60
2022-09-11T10:44:02.393Z,0.90
2022-09-11T10:46:38.502Z,1.30
2022-09-11T10:49:05.574Z,0.80
2022-09-11T10:51:36.015Z,0.82
2022-09-11T10:54:08.845Z,1.00
2022-09-11T10:56:43.275Z,0.95
2022-09-11T10:59:18.528Z,0.88
2022-09-11T11:01:45.501Z,1.00
2022-09-11T11:04:12.987Z,0.90
2022-09-11T11:09:35.578Z,0.80
2022-09-11T11:12:29.321Z,1.20
2022-09-11T11:15:20.324Z,1.02
2022-09-11T11:18:18.851Z,1.13
2022-09-11T11:21:28.151Z,0.90
2022-09-11T11:24:13.632Z,0.88
2022-09-11T11:26:49.437Z,0.70
2022-09-11T11:29:37.128Z,0.90
2022-09-11T11:32:11.285Z,1.00
2022-09-11T11:34:51.813Z,0.85
2022-09-11T11:37:32.388Z,1.15
2022-09-11T11:40:10.862Z,1.15
2022-09-11T11:42:55.960Z,0.88
2022-09-11T11:45:32.794Z,1.23
2022-09-11T11:48:06.093Z,1.00
2022-09-11T11:50:43.169Z,0.70
2022-09-11T11:53:19.351Z,1.20
2022-09-11T11:55:55.059Z,1.00
2022-09-11T11:58:47.614Z,0.90
2022-09-11T12:01:24.956Z,0.90
2022-09-11T12:04:03.156Z,0.77
2022-09-11T12:06:30.366Z,0.70
2022-09-11T12:08:57.951Z,0.75
2022-09-11T12:11:32.151Z,0.98
2022-09-11T12:14:00.103Z,0.80
2022-09-11T12:16:32.727Z,0.80
2022-09-11T12:19:15.504Z,0.60
2022-09-11T12:21:53.548Z,0.52
2022-09-11T12:24:45.091Z,0.90
2022-09-11T12:27:48.957Z,0.90
2022-09-11T12:30:18.275Z,0.70
2022-09-11T12:33:00.480Z,0.65
2022-09-11T12:35:47.777Z,0.85
2022-09-11T12:38:31.203Z,0.80
2022-09-11T12:41:10.461Z,0.50
2022-09-11T12:43:37.563Z,0.73
2022-09-11T12:46:09.253Z,0.77
2022-09-11T12:48:43.358Z,0.68
2022-09-11T12:51:31.726Z,1.08
2022-09-11T12:54:04.988Z,0.80
2022-09-11T12:56:36.612Z,0.60
2022-09-11T12:59:09.501Z,0.70
2022-09-11T13:01:42.678Z,0.65
2022-09-11T13:04:09.767Z,0.70
2022-09-11T13:06:41.755Z,0.80
2022-09-11T13:09:28.272Z,0.45
2022-09-11T13:12:16.921Z,0.80
2022-09-11T13:14:52.178Z,0.80
2022-09-11T13:17:30.917Z,0.70
2022-09-11T13:20:20.752Z,0.77
2022-09-11T13:22:49.029Z,0.98
2022-09-11T13:25:19.399Z,0.60
2022-09-11T13:28:00.142Z,1.00
2022-09-11T13:30:27.889Z,0.68
2022-09-11T13:33:09.567Z,0.75
2022-09-11T13:35:40.345Z,0.80
2022-09-11T13:38:18.634Z,0.98
2022-09-11T13:40:50.073Z,0.60
2022-09-11T13:43:39.869Z,0.77
2022-09-11T13:46:16.286Z,0.63
2022-09-11T13:48:45.030Z,0.50
2022-09-11T13:51:21.191Z,0.60
2022-09-11T13:54:12.191Z,0.43
2022-09-11T13:56:47.581Z,0.55
2022-09-11T13:59:36.726Z,0.50
2022-09-11T14:02:08.643Z,0.57
2022-09-11T14:04:41.473Z,0.63
2022-09-11T14:07:20.512Z,0.40
2022-09-11T14:10:19.742Z,0.93
2022-09-11T14:13:17.108Z,0.52
2022-09-11T14:15:58.480Z,0.55
2022-09-11T14:18:52.937Z,0.55
2022-09-11T14:21:36.083Z,0.50
2022-09-11T14:24:07.359Z,0.50
2022-09-11T14:26:35.318Z,0.60
2022-09-11T14:29:25.340Z,0.50
2022-09-11T14:31:54.208Z,0.47
2022-09-11T14:34:31.535Z,0.70
2022-09-11T14:37:04.498Z,0.40
2022-09-11T14:39:31.453Z,0.75
2022-09-11T14:41:59.321Z,0.80
2022-09-11T14:44:27.291Z,0.60
2022-09-11T14:46:55.545Z,0.50
2022-09-11T14:49:23.149Z,0.40
2022-09-11T14:51:55.336Z,0.52
2022-09-11T14:54:23.041Z,0.52
2022-09-11T14:56:50.013Z,0.40
2022-09-11T14:59:19.643Z,0.40
2022-09-11T15:01:47.422Z,0.40
2022-09-11T15:04:23.377Z,0.90
2022-09-11T15:06:53.395Z,0.50
2022-09-11T15:09:20.456Z,0.30
2022-09-11T15:11:47.632Z,0.50
2022-09-11T15:14:27.855Z,0.70
2022-09-11T15:17:04.568Z,0.47
2022-09-11T15:19:32.582Z,0.25
2022-09-11T15:21:59.707Z,0.50
2022-09-11T15:24:29.096Z,0.70
2022-09-11T15:26:56.747Z,0.50
2022-09-11T15:29:29.405Z,0.30
2022-09-11T15:31:58.918Z,0.65
2022-09-11T15:34:26.611Z,0.50
2022-09-11T15:36:53.501Z,0.40
2022-09-11T15:39:21.658Z,0.88
2022-09-11T15:41:48.826Z,0.30
2022-09-11T15:44:20.708Z,0.50
2022-09-11T15:46:49.934Z,0.50
2022-09-11T15:49:18.295Z,0.52
2022-09-11T15:51:45.322Z,0.70
2022-09-11T15:54:13.887Z,0.38
2022-09-11T15:56:40.841Z,0.47
2022-09-11T15:59:08.459Z,0.40
2022-09-11T16:01:37.677Z,0.73
2022-09-11T16:04:08.846Z,0.30
2022-09-11T16:06:39.202Z,0.75
2022-09-11T16:09:08.844Z,0.32
2022-09-11T16:11:41.155Z,0.40
2022-09-11T16:14:09.014Z,0.30
2022-09-11T16:16:35.951Z,0.35
2022-09-11T16:19:03.817Z,0.40
2022-09-11T16:21:31.308Z,0.43
2022-09-11T16:26:31.673Z,0.55
2022-09-11T16:28:58.767Z,0.65
2022-09-11T16:31:26.300Z,0.50
2022-09-11T16:36:34.362Z,0.52
2022-09-11T16:39:01.857Z,0.60
2022-09-11T16:41:29.156Z,0.45
2022-09-11T16:43:56.082Z,0.50
2022-09-11T16:46:25.948Z,0.52
2022-09-11T16:48:54.559Z,0.40
2022-09-11T16:51:24.378Z,0.63
2022-09-11T16:53:51.581Z,0.63
2022-09-11T16:56:21.408Z,0.63
2022-09-11T16:58:49.403Z,0.82
2022-09-11T17:01:19.066Z,0.90
2022-09-11T17:03:48.533Z,0.40
2022-09-11T17:06:17.101Z,0.55
2022-09-11T17:08:44.910Z,0.38
2022-09-11T17:11:14.973Z,0.57
2022-09-11T17:13:43.491Z,0.65
2022-09-11T17:16:22.403Z,0.90
2022-09-11T17:18:54.334Z,0.63
2022-09-11T17:21:26.308Z,1.00
2022-09-11T17:23:56.437Z,0.80
2022-09-11T17:26:24.905Z,0.80
2022-09-11T17:28:52.786Z,0.60
2022-09-11T17:31:20.245Z,0.95
2022-09-11T17:33:52.018Z,0.98
2022-09-11T17:36:22.357Z,0.50
2022-09-11T17:38:52.825Z,0.55
2022-09-11T17:41:21.170Z,0.95
2022-09-11T17:43:48.884Z,0.80
2022-09-11T17:48:47.441Z,0.60
2022-09-11T17:51:18.534Z,0.82
2022-09-11T17:53:48.818Z,0.80
2022-09-11T17:56:18.517Z,0.60
2022-09-11T17:58:46.001Z,0.60
2022-09-11T18:01:16.812Z,0.68
2022-09-11T18:03:44.810Z,0.57
2022-09-11T18:08:48.510Z,0.70
2022-09-11T18:11:15.529Z,0.60
2022-09-11T18:13:46.016Z,1.35
2022-09-11T18:16:13.233Z,0.82
2022-09-11T18:18:40.401Z,0.98
2022-09-11T18:21:09.822Z,0.50
2022-09-11T18:23:39.777Z,0.50
2022-09-11T18:26:07.418Z,0.70
2022-09-11T18:28:34.978Z,0.40
2022-09-11T18:31:06.517Z,0.70
2022-09-11T18:33:34.101Z,0.65
2022-09-11T18:38:35.748Z,0.47
2022-09-11T18:41:02.899Z,0.55
2022-09-11T18:43:30.394Z,0.57
2022-09-11T18:46:02.202Z,0.77
2022-09-11T18:48:29.232Z,0.90
2022-09-11T18:50:56.364Z,0.40
2022-09-11T18:53:23.993Z,0.40
2022-09-11T18:56:10.699Z,0.57
2022-09-11T18:58:40.188Z,0.43
2022-09-11T19:01:09.292Z,0.70
2022-09-11T19:03:40.775Z,0.82
2022-09-11T19:06:14.476Z,0.65
2022-09-11T19:08:47.382Z,0.77
2022-09-11T19:11:22.207Z,0.75
2022-09-11T19:13:51.177Z,0.70
2022-09-11T19:16:19.941Z,0.80
2022-09-11T19:18:47.791Z,0.80
2022-09-11T19:21:21.305Z,0.50
2022-09-11T19:24:00.345Z,0.73
2022-09-11T19:26:38.313Z,0.93
2022-09-11T19:31:34.015Z,0.50
2022-09-11T19:34:03.042Z,0.80
2022-09-11T19:36:32.103Z,0.70
2022-09-11T19:39:00.441Z,0.40
2022-09-11T19:41:33.859Z,0.95
2022-09-11T19:44:06.527Z,0.50
2022-09-11T19:46:34.771Z,0.50
2022-09-11T19:49:03.591Z,0.55
2022-09-11T19:51:33.574Z,0.50
2022-09-11T19:54:02.994Z,0.52
2022-09-11T19:56:31.871Z,0.60
2022-09-11T19:59:00.333Z,0.40
2022-09-11T20:01:40.790Z,0.40
2022-09-11T20:04:08.090Z,0.50
2022-09-11T20:06:35.743Z,0.50
2022-09-11T20:11:52.435Z,0.50
2022-09-11T20:14:21.552Z,0.40
2022-09-11T20:16:48.991Z,0.38
2022-09-11T20:19:17.534Z,0.70
2022-09-11T20:21:44.660Z,0.50
2022-09-11T20:24:11.992Z,0.70
2022-09-11T20:26:38.971Z,0.50
2022-09-11T20:29:09.359Z,0.95
2022-09-11T20:31:47.915Z,0.40
2022-09-11T20:34:19.931Z,0.75
2022-09-11T20:36:48.110Z,0.40
2022-09-11T20:39:16.001Z,0.65
2022-09-11T20:41:43.498Z,0.20
2022-09-11T20:44:10.487Z,0.40
2022-09-11T20:46:37.538Z,0.45
2022-09-11T20:49:05.271Z,0.70
2022-09-11T20:51:33.102Z,0.70
2022-09-11T20:56:27.964Z,0.43
2022-09-11T20:58:56.166Z,0.47
2022-09-11T21:01:24.529Z,0.50
2022-09-11T21:03:56.935Z,0.50
2022-09-11T21:06:26.705Z,0.20
2022-09-11T21:09:00.770Z,0.30
2022-09-11T21:11:30.177Z,0.40
2022-09-11T21:13:57.569Z,0.73
2022-09-11T21:16:24.934Z,0.50
2022-09-11T21:18:54.328Z,0.40
2022-09-11T21:21:22.733Z,0.60
2022-09-11T21:23:54.675Z,0.50
2022-09-11T21:26:22.706Z,0.80
2022-09-11T21:28:49.866Z,0.60
2022-09-11T21:31:16.960Z,0.50
2022-09-11T21:33:44.341Z,0.50
2022-09-11T21:36:11.384Z,0.50
2022-09-11T21:38:38.537Z,0.55
2022-09-11T21:41:07.542Z,0.38
2022-09-11T21:43:34.654Z,0.40
2022-09-11T21:46:01.903Z,0.47
2022-09-11T21:48:33.618Z,0.60
2022-09-11T21:51:10.505Z,0.40
2022-09-11T21:53:38.985Z,0.30
2022-09-11T21:56:07.871Z,0.40
2022-09-11T21:58:34.993Z,0.40
2022-09-11T22:01:06.639Z,0.57
2022-09-11T22:03:34.048Z,0.55
2022-09-11T22:06:06.123Z,1.13
2022-09-11T22:08:33.275Z,0.28
2022-09-11T22:11:05.465Z,0.65
2022-09-11T22:13:35.608Z,0.65
2022-09-11T22:16:09.816Z,0.60
2022-09-11T22:18:38.189Z,0.60
2022-09-11T22:21:05.600Z,0.38
2022-09-11T22:23:33.124Z,0.50
2022-09-11T22:26:10.567Z,0.60
2022-09-11T22:28:38.685Z,0.55
2022-09-11T22:31:11.246Z,0.70
2022-09-11T22:33:40.248Z,0.45
2022-09-11T22:36:33.911Z,0.80
2022-09-11T22:39:01.079Z,0.47
2022-09-11T22:41:28.277Z,0.43
2022-09-11T22:43:55.615Z,0.60
2022-09-11T22:46:23.974Z,0.88
2022-09-11T22:48:51.405Z,0.65
2022-09-11T22:51:18.665Z,0.57
2022-09-11T22:53:46.176Z,0.73
2022-09-11T22:56:14.178Z,0.43
2022-09-11T22:58:41.406Z,0.35
2022-09-11T23:01:11.453Z,0.40
2022-09-11T23:03:39.079Z,0.50
2022-09-11T23:06:24.854Z,0.40
2022-09-11T23:08:52.804Z,0.30
2022-09-11T23:11:20.194Z,0.40
2022-09-11T23:13:48.859Z,0.50
2022-09-11T23:16:19.771Z,0.45
2022-09-11T23:18:47.735Z,0.38
2022-09-11T23:21:15.508Z,0.55
2022-09-11T23:26:12.690Z,0.47
2022-09-11T23:28:40.568Z,0.50
2022-09-11T23:31:16.473Z,0.73
2022-09-11T23:33:43.602Z,0.40
2022-09-11T23:36:13.082Z,0.25
2022-09-11T23:38:40.732Z,0.57
2022-09-11T23:41:08.066Z,0.30
2022-09-11T23:43:35.514Z,0.17
2022-09-11T23:46:02.915Z,0.60
2022-09-11T23:48:30.295Z,0.80
2022-09-11T23:50:57.374Z,0.45
2022-09-11T23:53:24.257Z,0.30
2022-09-11T23:55:52.799Z,0.50
2022-09-11T23:58:19.814Z,0.30
